createdAt,value
2017-05-26T00:00:05.797Z,0
2017-05-26T00:01:06.419Z,0
2017-05-26T00:02:07.086Z,0
2017-05-26T00:03:07.683Z,0
2017-05-26T00:04:08.290Z,0
2017-05-26T00:05:08.900Z,0
2017-05-26T00:06:09.506Z,0
2017-05-26T00:07:10.114Z,0
2017-05-26T00:08:10.719Z,0
2017-05-26T00:09:11.381Z,0
2017-05-26T00:10:11.990Z,0
2017-05-26T00:11:12.587Z,0
2017-05-26T00:12:13.196Z,0
2017-05-26T00:13:13.796Z,0
2017-05-26T00:14:14.406Z,0
2017-05-26T00:15:15.010Z,0
2017-05-26T00:16:15.640Z,0
2017-05-26T00:17:16.217Z,0
2017-05-26T00:18:16.865Z,0
2017-05-26T00:19:17.462Z,0
2017-05-26T00:20:18.070Z,0
2017-05-26T00:21:18.680Z,0
2017-05-26T00:22:19.290Z,0
2017-05-26T00:23:19.955Z,0
2017-05-26T00:24:20.565Z,0
2017-05-26T00:25:21.180Z,0
2017-05-26T00:26:21.796Z,0
2017-05-26T00:27:22.405Z,0
2017-05-26T00:28:23.016Z,0
2017-05-26T00:29:23.613Z,0
2017-05-26T00:30:24.267Z,0
2017-05-26T00:31:24.821Z,0
2017-05-26T00:32:25.424Z,0
2017-05-26T00:33:26.044Z,0
2017-05-26T00:34:26.658Z,0
2017-05-26T00:35:27.323Z,0
2017-05-26T00:36:27.925Z,0
2017-05-26T00:37:28.539Z,0
2017-05-26T00:38:29.143Z,0
2017-05-26T00:39:29.752Z,0
2017-05-26T00:40:30.412Z,0
2017-05-26T00:41:31.023Z,0
2017-05-26T00:42:31.622Z,0
2017-05-26T00:43:32.228Z,0
2017-05-26T00:44:32.847Z,0
2017-05-26T00:45:33.459Z,0
2017-05-26T00:46:34.068Z,0
2017-05-26T00:47:34.675Z,0
2017-05-26T00:48:35.275Z,0
2017-05-26T00:49:35.875Z,0
2017-05-26T00:50:36.491Z,0
2017-05-26T00:51:37.102Z,0
2017-05-26T00:52:37.717Z,0
2017-05-26T00:53:38.329Z,0
2017-05-26T00:54:38.939Z,0
2017-05-26T00:55:39.547Z,0
2017-05-26T00:56:40.161Z,0
2017-05-26T00:57:40.770Z,0
2017-05-26T00:58:41.370Z,0
2017-05-26T00:59:41.969Z,0
2017-05-26T01:00:42.581Z,0
2017-05-26T01:01:43.237Z,0
2017-05-26T01:02:43.850Z,0
2017-05-26T01:03:44.463Z,0
2017-05-26T01:04:45.066Z,0
2017-05-26T01:05:45.669Z,0
2017-05-26T01:06:46.333Z,0
2017-05-26T01:07:46.945Z,0
2017-05-26T01:08:47.556Z,0
2017-05-26T01:09:48.155Z,0
2017-05-26T01:10:48.765Z,0
2017-05-26T01:11:49.374Z,0
2017-05-26T01:12:50.035Z,0
2017-05-26T01:13:50.640Z,0
2017-05-26T01:14:51.252Z,0
2017-05-26T01:15:51.861Z,0
2017-05-26T01:16:52.473Z,0
2017-05-26T01:17:53.082Z,0
2017-05-26T01:18:53.678Z,0
2017-05-26T01:19:54.282Z,0
2017-05-26T01:20:54.891Z,0
2017-05-26T01:21:55.501Z,0
2017-05-26T01:22:56.114Z,0
2017-05-26T01:23:56.714Z,0
2017-05-26T01:24:57.324Z,0
2017-05-26T01:25:57.935Z,0
2017-05-26T01:26:58.660Z,0
2017-05-26T01:27:59.265Z,0
2017-05-26T01:28:59.881Z,0
2017-05-26T01:30:00.502Z,0
2017-05-26T01:31:01.088Z,0
2017-05-26T01:32:01.702Z,0
2017-05-26T01:33:02.313Z,0
2017-05-26T01:34:02.914Z,0
2017-05-26T01:35:03.511Z,0
2017-05-26T01:36:04.119Z,0
2017-05-26T01:37:04.733Z,0
2017-05-26T01:38:05.330Z,0
2017-05-26T01:39:05.948Z,0
2017-05-26T01:40:06.566Z,0
2017-05-26T01:41:07.179Z,0
2017-05-26T01:42:07.789Z,0
2017-05-26T01:43:08.387Z,0
2017-05-26T01:44:08.999Z,0
2017-05-26T01:45:09.612Z,0
2017-05-26T01:46:10.217Z,0
2017-05-26T01:47:10.874Z,0
2017-05-26T01:48:11.478Z,0
2017-05-26T01:49:12.089Z,0
2017-05-26T01:50:12.705Z,0
2017-05-26T01:51:13.313Z,0
2017-05-26T01:52:13.925Z,0
2017-05-26T01:53:14.538Z,0
2017-05-26T01:54:15.133Z,0
2017-05-26T01:55:15.730Z,0
2017-05-26T01:56:16.328Z,0
2017-05-26T01:57:16.926Z,0
2017-05-26T01:58:17.538Z,0
2017-05-26T01:59:18.136Z,0
2017-05-26T02:00:18.745Z,0
2017-05-26T02:01:19.343Z,0
2017-05-26T02:02:19.952Z,0
2017-05-26T02:03:20.551Z,0
2017-05-26T02:04:21.168Z,0
2017-05-26T02:05:21.780Z,0
2017-05-26T02:06:22.425Z,0
2017-05-26T02:07:23.027Z,0
2017-05-26T02:08:23.631Z,0
2017-05-26T02:09:24.247Z,0
2017-05-26T02:10:24.857Z,0
2017-05-26T02:11:25.517Z,0
2017-05-26T02:12:26.128Z,0
2017-05-26T02:13:26.739Z,0
2017-05-26T02:14:27.341Z,0
2017-05-26T02:15:27.953Z,0
2017-05-26T02:16:28.609Z,0
2017-05-26T02:17:29.216Z,0
2017-05-26T02:18:29.827Z,0
2017-05-26T02:19:30.440Z,0
2017-05-26T02:20:31.056Z,0
2017-05-26T02:21:31.669Z,0
2017-05-26T02:22:32.280Z,0
2017-05-26T02:23:32.893Z,0
2017-05-26T02:24:33.506Z,0
2017-05-26T02:25:34.115Z,0
2017-05-26T02:26:34.714Z,0
2017-05-26T02:27:35.326Z,0
2017-05-26T02:28:35.933Z,0
2017-05-26T02:29:36.589Z,0
2017-05-26T02:30:37.201Z,0
2017-05-26T02:31:37.801Z,0
2017-05-26T02:32:38.404Z,0
2017-05-26T02:33:39.013Z,0
2017-05-26T02:34:39.619Z,0
2017-05-26T02:35:40.222Z,0
2017-05-26T02:36:40.822Z,0
2017-05-26T02:37:41.420Z,0
2017-05-26T02:38:42.019Z,0
2017-05-26T02:39:42.632Z,0
2017-05-26T02:40:43.241Z,0
2017-05-26T02:41:43.839Z,0
2017-05-26T02:42:44.537Z,0
2017-05-26T02:43:45.136Z,0
2017-05-26T02:44:45.745Z,0
2017-05-26T02:45:46.341Z,0
2017-05-26T02:46:46.937Z,0
2017-05-26T02:47:47.545Z,0
2017-05-26T02:48:48.146Z,0
2017-05-26T02:49:48.742Z,0
2017-05-26T02:50:49.349Z,0
2017-05-26T02:51:49.953Z,0
2017-05-26T02:52:50.549Z,0
2017-05-26T02:53:51.157Z,0
2017-05-26T02:54:51.758Z,0
2017-05-26T02:55:52.358Z,0
2017-05-26T02:56:52.966Z,0
2017-05-26T02:57:53.580Z,0
2017-05-26T02:58:54.179Z,0
2017-05-26T02:59:54.790Z,0
2017-05-26T03:00:55.401Z,0
2017-05-26T03:01:56.015Z,0
2017-05-26T03:02:56.624Z,0
2017-05-26T03:03:57.221Z,0
2017-05-26T03:04:57.817Z,0
2017-05-26T03:05:58.416Z,0
2017-05-26T03:06:59.017Z,0
2017-05-26T03:07:59.627Z,0
2017-05-26T03:09:00.228Z,0
2017-05-26T03:10:00.841Z,0
2017-05-26T03:11:01.456Z,0
2017-05-26T03:12:02.066Z,0
2017-05-26T03:13:02.663Z,0
2017-05-26T03:14:03.265Z,0
2017-05-26T03:15:03.877Z,0
2017-05-26T03:16:04.478Z,0
2017-05-26T03:17:05.084Z,0
2017-05-26T03:18:05.697Z,0
2017-05-26T03:19:06.310Z,0
2017-05-26T03:20:06.976Z,5
2017-05-26T03:21:07.586Z,5
2017-05-26T03:22:08.184Z,5
2017-05-26T03:23:08.787Z,5
2017-05-26T03:24:09.401Z,5
2017-05-26T03:25:10.013Z,5
2017-05-26T03:26:10.616Z,5
2017-05-26T03:27:11.221Z,5
2017-05-26T03:28:11.836Z,10
2017-05-26T03:29:12.447Z,10
2017-05-26T03:30:13.062Z,10
2017-05-26T03:31:13.673Z,10
2017-05-26T03:32:14.289Z,10
2017-05-26T03:33:14.908Z,15
2017-05-26T03:34:15.525Z,15
2017-05-26T03:35:16.146Z,15
2017-05-26T03:36:16.754Z,15
2017-05-26T03:37:17.365Z,20
2017-05-26T03:38:17.965Z,20
2017-05-26T03:39:18.580Z,20
2017-05-26T03:40:19.193Z,20
2017-05-26T03:41:19.801Z,25
2017-05-26T03:42:20.401Z,25
2017-05-26T03:43:21.014Z,25
2017-05-26T03:44:21.617Z,30
2017-05-26T03:45:22.220Z,30
2017-05-26T03:46:22.824Z,30
2017-05-26T03:47:23.441Z,35
2017-05-26T03:48:24.058Z,35
2017-05-26T03:49:24.658Z,35
2017-05-26T03:50:25.263Z,40
2017-05-26T03:51:25.866Z,40
2017-05-26T03:52:26.478Z,40
2017-05-26T03:53:27.078Z,45
2017-05-26T03:54:27.685Z,45
2017-05-26T03:55:28.293Z,45
2017-05-26T03:56:28.907Z,50
2017-05-26T03:57:29.523Z,50
2017-05-26T03:58:30.143Z,55
2017-05-26T03:59:30.754Z,55
2017-05-26T04:00:31.359Z,55
2017-05-26T04:01:31.960Z,60
2017-05-26T04:02:32.571Z,60
2017-05-26T04:03:33.175Z,60
2017-05-26T04:04:33.795Z,65
2017-05-26T04:05:34.414Z,65
2017-05-26T04:06:35.017Z,70
2017-05-26T04:07:35.619Z,70
2017-05-26T04:08:36.235Z,70
2017-05-26T04:09:36.860Z,75
2017-05-26T04:10:37.474Z,75
2017-05-26T04:11:38.092Z,75
2017-05-26T04:12:38.710Z,80
2017-05-26T04:13:39.312Z,80
2017-05-26T04:14:39.915Z,85
2017-05-26T04:15:40.529Z,85
2017-05-26T04:16:41.134Z,90
2017-05-26T04:17:41.750Z,90
2017-05-26T04:18:42.363Z,90
2017-05-26T04:19:42.966Z,90
2017-05-26T04:20:43.581Z,90
2017-05-26T04:21:44.180Z,95
2017-05-26T04:22:44.795Z,95
2017-05-26T04:23:45.411Z,95
2017-05-26T04:24:46.030Z,100
2017-05-26T04:25:46.845Z,100
2017-05-26T04:26:47.459Z,105
2017-05-26T04:27:48.075Z,105
2017-05-26T04:28:48.677Z,105
2017-05-26T04:29:49.292Z,110
2017-05-26T04:30:49.908Z,110
2017-05-26T04:31:50.524Z,110
2017-05-26T04:32:51.133Z,115
2017-05-26T04:33:51.753Z,115
2017-05-26T04:34:52.373Z,120
2017-05-26T04:35:52.991Z,120
2017-05-26T04:36:53.605Z,120
2017-05-26T04:37:54.223Z,125
2017-05-26T04:38:54.840Z,125
2017-05-26T04:39:55.458Z,125
2017-05-26T04:40:56.076Z,130
2017-05-26T04:41:56.677Z,130
2017-05-26T04:42:57.295Z,135
2017-05-26T04:43:57.914Z,140
2017-05-26T04:44:58.528Z,140
2017-05-26T04:45:59.174Z,145
2017-05-26T04:46:59.753Z,175
2017-05-26T04:48:00.366Z,220
2017-05-26T04:49:00.971Z,250
2017-05-26T04:50:01.601Z,255
2017-05-26T04:51:02.222Z,260
2017-05-26T04:52:02.848Z,265
2017-05-26T04:53:03.467Z,270
2017-05-26T04:54:04.105Z,275
2017-05-26T04:55:04.729Z,245
2017-05-26T04:56:05.367Z,215
2017-05-26T04:57:05.992Z,235
2017-05-26T04:58:06.617Z,285
2017-05-26T04:59:07.234Z,310
2017-05-26T05:00:07.867Z,315
2017-05-26T05:01:08.473Z,320
2017-05-26T05:02:09.087Z,330
2017-05-26T05:03:09.712Z,330
2017-05-26T05:04:10.335Z,335
2017-05-26T05:05:10.951Z,345
2017-05-26T05:06:11.575Z,350
2017-05-26T05:07:12.200Z,355
2017-05-26T05:08:12.828Z,365
2017-05-26T05:09:13.447Z,365
2017-05-26T05:10:14.074Z,350
2017-05-26T05:11:14.699Z,265
2017-05-26T05:12:15.323Z,210
2017-05-26T05:13:15.937Z,215
2017-05-26T05:14:16.571Z,295
2017-05-26T05:15:17.200Z,370
2017-05-26T05:16:17.815Z,400
2017-05-26T05:17:18.427Z,405
2017-05-26T05:18:19.052Z,415
2017-05-26T05:19:19.678Z,415
2017-05-26T05:20:20.355Z,425
2017-05-26T05:21:20.991Z,430
2017-05-26T05:22:21.621Z,435
2017-05-26T05:23:22.248Z,445
2017-05-26T05:24:22.961Z,420
2017-05-26T05:25:23.544Z,330
2017-05-26T05:26:24.183Z,245
2017-05-26T05:27:24.817Z,270
2017-05-26T05:28:25.448Z,370
2017-05-26T05:29:26.084Z,470
2017-05-26T05:30:26.714Z,490
2017-05-26T05:31:27.345Z,495
2017-05-26T05:32:27.961Z,505
2017-05-26T05:33:28.576Z,510
2017-05-26T05:34:29.201Z,520
2017-05-26T05:35:29.829Z,530
2017-05-26T05:36:30.459Z,550
2017-05-26T05:37:31.088Z,550
2017-05-26T05:38:31.724Z,555
2017-05-26T05:39:32.341Z,570
2017-05-26T05:40:32.970Z,575
2017-05-26T05:41:33.586Z,575
2017-05-26T05:42:34.214Z,580
2017-05-26T05:43:34.845Z,585
2017-05-26T05:44:35.466Z,590
2017-05-26T05:45:36.097Z,605
2017-05-26T05:46:36.718Z,605
2017-05-26T05:47:37.336Z,615
2017-05-26T05:48:37.970Z,625
2017-05-26T05:49:38.610Z,625
2017-05-26T05:50:39.226Z,630
2017-05-26T05:51:39.846Z,635
2017-05-26T05:52:40.523Z,645
2017-05-26T05:53:41.093Z,650
2017-05-26T05:54:41.722Z,655
2017-05-26T05:55:42.354Z,660
2017-05-26T05:56:42.988Z,675
2017-05-26T05:57:43.619Z,670
2017-05-26T05:58:44.239Z,685
2017-05-26T05:59:44.864Z,700
2017-05-26T06:00:45.483Z,700
2017-05-26T06:01:46.120Z,705
2017-05-26T06:02:46.749Z,735
2017-05-26T06:03:47.388Z,725
2017-05-26T06:04:48.020Z,725
2017-05-26T06:05:48.652Z,735
2017-05-26T06:06:49.276Z,740
2017-05-26T06:07:49.913Z,750
2017-05-26T06:08:50.549Z,760
2017-05-26T06:09:51.185Z,765
2017-05-26T06:10:51.858Z,690
2017-05-26T06:11:52.509Z,490
2017-05-26T06:12:53.105Z,455
2017-05-26T06:13:53.736Z,655
2017-05-26T06:14:54.367Z,800
2017-05-26T06:15:55.071Z,805
2017-05-26T06:16:55.686Z,825
2017-05-26T06:17:56.319Z,820
2017-05-26T06:18:56.953Z,840
2017-05-26T06:19:57.574Z,845
2017-05-26T06:20:58.206Z,855
2017-05-26T06:21:58.839Z,865
2017-05-26T06:22:59.458Z,875
2017-05-26T06:24:00.080Z,875
2017-05-26T06:25:00.718Z,885
2017-05-26T06:26:01.359Z,900
2017-05-26T06:27:01.977Z,910
2017-05-26T06:28:02.612Z,910
2017-05-26T06:29:03.232Z,930
2017-05-26T06:30:03.879Z,940
2017-05-26T06:31:04.517Z,945
2017-05-26T06:32:05.151Z,955
2017-05-26T06:33:05.776Z,975
2017-05-26T06:34:06.413Z,985
2017-05-26T06:35:07.035Z,990
2017-05-26T06:36:07.654Z,1000
2017-05-26T06:37:08.278Z,1010
2017-05-26T06:38:08.916Z,1030
2017-05-26T06:39:09.550Z,1040
2017-05-26T06:40:10.178Z,1050
2017-05-26T06:41:10.799Z,1060
2017-05-26T06:42:11.422Z,1070
2017-05-26T06:43:12.053Z,1080
2017-05-26T06:44:12.677Z,1100
2017-05-26T06:45:13.313Z,1115
2017-05-26T06:46:13.947Z,1125
2017-05-26T06:47:14.579Z,1130
2017-05-26T06:48:15.198Z,1145
2017-05-26T06:49:15.830Z,1160
2017-05-26T06:50:16.451Z,1170
2017-05-26T06:51:17.072Z,1190
2017-05-26T06:52:17.735Z,1205
2017-05-26T06:53:18.334Z,1220
2017-05-26T06:54:18.966Z,1230
2017-05-26T06:55:19.596Z,1235
2017-05-26T06:56:20.221Z,1230
2017-05-26T06:57:20.851Z,1240
2017-05-26T06:58:21.476Z,1250
2017-05-26T06:59:22.097Z,1275
2017-05-26T07:00:22.731Z,1315
2017-05-26T07:01:23.351Z,1310
2017-05-26T07:02:23.971Z,1325
2017-05-26T07:03:24.592Z,1330
2017-05-26T07:04:25.228Z,1325
2017-05-26T07:05:25.843Z,1330
2017-05-26T07:06:26.465Z,1335
2017-05-26T07:07:27.087Z,1350
2017-05-26T07:08:27.708Z,1355
2017-05-26T07:09:28.328Z,1385
2017-05-26T07:10:28.963Z,1390
2017-05-26T07:11:29.633Z,1395
2017-05-26T07:12:30.267Z,1395
2017-05-26T07:13:30.903Z,1400
2017-05-26T07:14:31.531Z,1405
2017-05-26T07:15:32.152Z,1415
2017-05-26T07:16:32.788Z,1420
2017-05-26T07:17:33.407Z,1430
2017-05-26T07:18:34.027Z,1435
2017-05-26T07:19:34.655Z,1435
2017-05-26T07:20:35.282Z,1425
2017-05-26T07:21:35.911Z,1450
2017-05-26T07:22:36.534Z,1450
2017-05-26T07:23:37.151Z,1460
2017-05-26T07:24:37.783Z,1450
2017-05-26T07:25:38.403Z,1465
2017-05-26T07:26:39.025Z,1460
2017-05-26T07:27:39.658Z,1470
2017-05-26T07:28:40.297Z,1465
2017-05-26T07:29:40.913Z,1465
2017-05-26T07:30:41.533Z,1470
2017-05-26T07:31:42.165Z,1510
2017-05-26T07:32:42.798Z,1485
2017-05-26T07:33:43.427Z,1510
2017-05-26T07:34:44.058Z,1525
2017-05-26T07:35:44.715Z,1560
2017-05-26T07:36:45.370Z,1585
2017-05-26T07:37:46.009Z,1605
2017-05-26T07:38:46.632Z,1575
2017-05-26T07:39:47.264Z,1590
2017-05-26T07:40:47.899Z,1575
2017-05-26T07:41:48.536Z,1595
2017-05-26T07:42:49.162Z,1595
2017-05-26T07:43:49.788Z,1600
2017-05-26T07:44:50.420Z,1605
2017-05-26T07:45:51.058Z,1610
2017-05-26T07:46:51.691Z,1630
2017-05-26T07:47:52.316Z,1640
2017-05-26T07:48:52.953Z,1585
2017-05-26T07:49:53.587Z,1580
2017-05-26T07:50:54.225Z,1545
2017-05-26T07:51:54.849Z,1515
2017-05-26T07:52:55.488Z,1540
2017-05-26T07:53:56.132Z,1525
2017-05-26T07:54:56.760Z,1530
2017-05-26T07:55:57.378Z,1495
2017-05-26T07:56:58.009Z,1480
2017-05-26T07:57:58.692Z,1470
2017-05-26T07:58:59.325Z,1445
2017-05-26T07:59:59.954Z,1445
2017-05-26T08:01:00.580Z,1445
2017-05-26T08:02:01.213Z,1445
2017-05-26T08:03:01.834Z,1440
2017-05-26T08:04:02.466Z,1430
2017-05-26T08:05:03.086Z,1430
2017-05-26T08:06:03.707Z,1435
2017-05-26T08:07:04.346Z,1425
2017-05-26T08:08:04.977Z,1420
2017-05-26T08:09:05.598Z,1405
2017-05-26T08:10:06.229Z,1415
2017-05-26T08:11:06.860Z,1395
2017-05-26T08:12:07.540Z,1405
2017-05-26T08:13:08.172Z,1410
2017-05-26T08:14:08.803Z,1410
2017-05-26T08:15:09.433Z,1400
2017-05-26T08:16:10.061Z,1400
2017-05-26T08:17:10.680Z,1405
2017-05-26T08:18:11.299Z,1410
2017-05-26T08:19:11.929Z,1410
2017-05-26T08:20:12.559Z,1395
2017-05-26T08:21:13.183Z,1395
2017-05-26T08:22:13.818Z,1400
2017-05-26T08:23:14.446Z,1400
2017-05-26T08:24:15.074Z,1400
2017-05-26T08:25:15.713Z,1410
2017-05-26T08:26:16.345Z,1395
2017-05-26T08:27:16.977Z,1395
2017-05-26T08:28:17.600Z,1395
2017-05-26T08:29:18.234Z,1390
2017-05-26T08:30:18.866Z,1400
2017-05-26T08:31:19.501Z,1395
2017-05-26T08:32:20.131Z,1395
2017-05-26T08:33:20.752Z,1395
2017-05-26T08:34:21.375Z,1395
2017-05-26T08:35:22.007Z,1395
2017-05-26T08:36:22.640Z,1395
2017-05-26T08:37:23.273Z,1400
2017-05-26T08:38:23.893Z,1395
2017-05-26T08:39:24.521Z,1390
2017-05-26T08:40:25.138Z,1390
2017-05-26T08:41:25.766Z,1400
2017-05-26T08:42:26.388Z,1395
2017-05-26T08:43:27.023Z,1405
2017-05-26T08:44:27.655Z,1395
2017-05-26T08:45:28.288Z,1395
2017-05-26T08:46:28.909Z,1380
2017-05-26T08:47:29.542Z,1385
2017-05-26T08:48:30.163Z,1390
2017-05-26T08:49:30.793Z,1395
2017-05-26T08:50:31.435Z,1385
2017-05-26T08:51:32.054Z,1385
2017-05-26T08:52:32.683Z,1395
2017-05-26T08:53:33.305Z,1395
2017-05-26T08:54:33.940Z,1400
2017-05-26T08:55:34.628Z,1395
2017-05-26T08:56:35.263Z,1395
2017-05-26T08:57:35.884Z,1390
2017-05-26T08:58:36.518Z,1390
2017-05-26T08:59:37.149Z,1385
2017-05-26T09:00:37.778Z,1385
2017-05-26T09:01:38.408Z,1385
2017-05-26T09:02:39.032Z,1390
2017-05-26T09:03:39.666Z,1385
2017-05-26T09:04:40.294Z,1395
2017-05-26T09:05:40.925Z,1390
2017-05-26T09:06:41.550Z,1385
2017-05-26T09:07:42.182Z,1380
2017-05-26T09:08:42.812Z,1380
2017-05-26T09:09:43.439Z,1385
2017-05-26T09:10:44.074Z,1390
2017-05-26T09:11:44.711Z,1390
2017-05-26T09:12:45.347Z,1395
2017-05-26T09:13:45.984Z,1400
2017-05-26T09:14:46.614Z,1390
2017-05-26T09:15:47.245Z,1390
2017-05-26T09:16:47.873Z,1380
2017-05-26T09:17:48.550Z,1390
2017-05-26T09:18:49.179Z,1405
2017-05-26T09:19:49.811Z,1400
2017-05-26T09:20:50.463Z,1400
2017-05-26T09:21:51.089Z,1395
2017-05-26T09:22:51.732Z,1405
2017-05-26T09:23:52.365Z,1410
2017-05-26T09:24:53.002Z,1415
2017-05-26T09:25:53.620Z,1400
2017-05-26T09:26:54.239Z,1395
2017-05-26T09:27:54.860Z,1405
2017-05-26T09:28:55.489Z,1405
2017-05-26T09:29:56.128Z,1415
2017-05-26T09:30:56.785Z,1415
2017-05-26T09:31:57.372Z,1415
2017-05-26T09:32:58.009Z,1415
2017-05-26T09:33:58.630Z,1425
2017-05-26T09:34:59.253Z,1415
2017-05-26T09:35:59.890Z,1420
2017-05-26T09:37:00.507Z,1420
2017-05-26T09:38:01.140Z,1420
2017-05-26T09:39:01.820Z,1420
2017-05-26T09:40:02.444Z,1425
2017-05-26T09:41:03.079Z,1415
2017-05-26T09:42:03.712Z,1420
2017-05-26T09:43:04.341Z,1415
2017-05-26T09:44:04.970Z,1425
2017-05-26T09:45:05.597Z,1425
2017-05-26T09:46:06.228Z,1430
2017-05-26T09:47:06.847Z,1420
2017-05-26T09:48:07.494Z,1430
2017-05-26T09:49:08.149Z,1425
2017-05-26T09:50:08.771Z,1435
2017-05-26T09:51:09.392Z,1430
2017-05-26T09:52:10.026Z,1430
2017-05-26T09:53:10.653Z,1430
2017-05-26T09:54:11.282Z,1430
2017-05-26T09:55:11.907Z,1450
2017-05-26T09:56:12.543Z,1435
2017-05-26T09:57:13.179Z,1430
2017-05-26T09:58:13.863Z,1430
2017-05-26T09:59:14.437Z,1430
2017-05-26T10:00:15.069Z,1430
2017-05-26T10:01:15.689Z,1425
2017-05-26T10:02:16.325Z,1430
2017-05-26T10:03:16.954Z,1430
2017-05-26T10:04:17.587Z,1430
2017-05-26T10:05:18.222Z,1430
2017-05-26T10:06:18.844Z,1435
2017-05-26T10:07:19.466Z,1430
2017-05-26T10:08:20.089Z,1435
2017-05-26T10:09:20.711Z,1435
2017-05-26T10:10:21.334Z,1430
2017-05-26T10:11:21.970Z,1435
2017-05-26T10:12:22.601Z,1430
2017-05-26T10:13:23.237Z,1435
2017-05-26T10:14:23.872Z,1440
2017-05-26T10:15:24.509Z,1445
2017-05-26T10:16:25.143Z,1430
2017-05-26T10:17:25.783Z,1435
2017-05-26T10:18:26.401Z,1420
2017-05-26T10:19:27.022Z,1430
2017-05-26T10:20:27.640Z,1440
2017-05-26T10:21:28.276Z,1435
2017-05-26T10:22:28.896Z,1440
2017-05-26T10:23:29.517Z,1435
2017-05-26T10:24:30.145Z,1430
2017-05-26T10:25:30.779Z,1450
2017-05-26T10:26:31.410Z,1440
2017-05-26T10:27:32.041Z,1435
2017-05-26T10:28:32.674Z,1425
2017-05-26T10:29:33.294Z,1430
2017-05-26T10:30:33.933Z,1430
2017-05-26T10:31:34.566Z,1430
2017-05-26T10:32:35.185Z,1435
2017-05-26T10:33:35.808Z,1435
2017-05-26T10:34:36.432Z,1435
2017-05-26T10:35:37.072Z,1435
2017-05-26T10:36:37.692Z,1440
2017-05-26T10:37:38.320Z,1445
2017-05-26T10:38:38.949Z,1450
2017-05-26T10:39:39.583Z,1445
2017-05-26T10:40:40.201Z,1440
2017-05-26T10:41:40.830Z,1450
2017-05-26T10:42:41.460Z,1445
2017-05-26T10:43:42.103Z,1440
2017-05-26T10:44:42.737Z,1440
2017-05-26T10:45:43.370Z,1445
2017-05-26T10:46:44.007Z,1450
2017-05-26T10:47:44.636Z,1450
2017-05-26T10:48:45.260Z,1445
2017-05-26T10:49:45.889Z,1445
2017-05-26T10:50:46.516Z,1445
2017-05-26T10:51:47.159Z,1440
2017-05-26T10:52:47.774Z,1450
2017-05-26T10:53:48.393Z,1440
2017-05-26T10:54:49.011Z,1430
2017-05-26T10:55:49.635Z,1430
2017-05-26T10:56:50.270Z,1455
2017-05-26T10:57:50.953Z,1435
2017-05-26T10:58:51.587Z,1435
2017-05-26T10:59:52.209Z,1435
2017-05-26T11:00:52.834Z,1445
2017-05-26T11:01:53.466Z,1435
2017-05-26T11:02:54.094Z,1440
2017-05-26T11:03:54.722Z,1425
2017-05-26T11:04:55.345Z,1430
2017-05-26T11:05:55.978Z,1440
2017-05-26T11:06:56.608Z,1440
2017-05-26T11:07:57.229Z,1440
2017-05-26T11:08:57.844Z,1435
2017-05-26T11:09:58.475Z,1435
2017-05-26T11:10:59.097Z,1440
2017-05-26T11:11:59.727Z,1445
2017-05-26T11:13:00.367Z,1445
2017-05-26T11:14:00.998Z,1445
2017-05-26T11:15:01.618Z,1435
2017-05-26T11:16:02.254Z,1435
2017-05-26T11:17:02.889Z,1425
2017-05-26T11:18:03.563Z,1430
2017-05-26T11:19:04.198Z,1420
2017-05-26T11:20:04.820Z,1425
2017-05-26T11:21:05.437Z,1420
2017-05-26T11:22:06.057Z,1415
2017-05-26T11:23:06.693Z,1420
2017-05-26T11:24:07.326Z,1415
2017-05-26T11:25:07.948Z,1410
2017-05-26T11:26:08.582Z,1415
2017-05-26T11:27:09.210Z,1410
2017-05-26T11:28:09.834Z,1405
2017-05-26T11:29:10.467Z,1410
2017-05-26T11:30:11.099Z,1415
2017-05-26T11:31:11.731Z,1405
2017-05-26T11:32:12.368Z,1410
2017-05-26T11:33:12.993Z,1405
2017-05-26T11:34:13.629Z,1405
2017-05-26T11:35:14.288Z,1400
2017-05-26T11:36:14.914Z,1395
2017-05-26T11:37:15.548Z,1400
2017-05-26T11:38:16.187Z,1400
2017-05-26T11:39:16.809Z,1400
2017-05-26T11:40:17.426Z,1400
2017-05-26T11:41:18.050Z,1405
2017-05-26T11:42:18.681Z,1395
2017-05-26T11:43:19.318Z,1390
2017-05-26T11:44:19.948Z,1395
2017-05-26T11:45:20.588Z,1400
2017-05-26T11:46:21.225Z,1395
2017-05-26T11:47:21.852Z,1395
2017-05-26T11:48:22.482Z,1390
2017-05-26T11:49:23.099Z,1390
2017-05-26T11:50:23.731Z,1380
2017-05-26T11:51:24.361Z,1380
2017-05-26T11:52:24.992Z,1375
2017-05-26T11:53:25.611Z,1380
2017-05-26T11:54:26.241Z,1380
2017-05-26T11:55:26.874Z,1380
2017-05-26T11:56:27.512Z,1375
2017-05-26T11:57:28.128Z,1355
2017-05-26T11:58:28.752Z,1355
2017-05-26T11:59:29.391Z,1370
2017-05-26T12:00:30.024Z,1370
2017-05-26T12:01:30.646Z,1350
2017-05-26T12:02:31.280Z,1360
2017-05-26T12:03:31.913Z,1350
2017-05-26T12:04:32.550Z,1360
2017-05-26T12:05:33.166Z,1380
2017-05-26T12:06:33.799Z,1335
2017-05-26T12:07:34.433Z,1345
2017-05-26T12:08:35.048Z,1345
2017-05-26T12:09:35.687Z,1335
2017-05-26T12:10:36.319Z,1335
2017-05-26T12:11:36.944Z,1355
2017-05-26T12:12:37.575Z,1335
2017-05-26T12:13:38.197Z,1320
2017-05-26T12:14:38.821Z,1325
2017-05-26T12:15:39.451Z,1325
2017-05-26T12:16:40.088Z,1320
2017-05-26T12:17:40.723Z,1320
2017-05-26T12:18:41.357Z,1320
2017-05-26T12:19:41.989Z,1320
2017-05-26T12:20:42.628Z,1305
2017-05-26T12:21:43.252Z,1315
2017-05-26T12:22:43.888Z,1310
2017-05-26T12:23:44.519Z,1300
2017-05-26T12:24:45.158Z,1305
2017-05-26T12:25:45.793Z,1300
2017-05-26T12:26:46.419Z,1295
2017-05-26T12:27:47.061Z,1295
2017-05-26T12:28:47.680Z,1295
2017-05-26T12:29:48.314Z,1280
2017-05-26T12:30:48.948Z,1285
2017-05-26T12:31:49.589Z,1280
2017-05-26T12:32:50.225Z,1285
2017-05-26T12:33:50.850Z,1265
2017-05-26T12:34:51.479Z,1275
2017-05-26T12:35:52.113Z,1265
2017-05-26T12:36:52.732Z,1260
2017-05-26T12:37:53.365Z,1265
2017-05-26T12:38:54.000Z,1260
2017-05-26T12:39:54.633Z,1250
2017-05-26T12:40:55.269Z,1245
2017-05-26T12:41:55.907Z,1245
2017-05-26T12:42:56.541Z,1240
2017-05-26T12:43:57.173Z,1240
2017-05-26T12:44:57.812Z,1240
2017-05-26T12:45:58.431Z,1225
2017-05-26T12:46:59.056Z,1215
2017-05-26T12:47:59.690Z,1215
2017-05-26T12:49:00.309Z,1215
2017-05-26T12:50:00.941Z,1225
2017-05-26T12:51:01.581Z,1225
2017-05-26T12:52:02.216Z,1210
2017-05-26T12:53:02.851Z,1200
2017-05-26T12:54:03.469Z,1205
2017-05-26T12:55:04.105Z,1195
2017-05-26T12:56:04.740Z,1185
2017-05-26T12:57:05.414Z,1185
2017-05-26T12:58:06.046Z,1185
2017-05-26T12:59:06.679Z,1185
2017-05-26T13:00:07.311Z,1180
2017-05-26T13:01:07.935Z,1180
2017-05-26T13:02:08.568Z,1165
2017-05-26T13:03:09.190Z,1160
2017-05-26T13:04:09.815Z,1155
2017-05-26T13:05:10.451Z,1150
2017-05-26T13:06:11.084Z,1150
2017-05-26T13:07:11.709Z,1150
2017-05-26T13:08:12.327Z,1135
2017-05-26T13:09:12.961Z,1140
2017-05-26T13:10:13.581Z,1145
2017-05-26T13:11:14.210Z,1135
2017-05-26T13:12:14.839Z,1115
2017-05-26T13:13:15.479Z,1125
2017-05-26T13:14:16.111Z,1125
2017-05-26T13:15:16.748Z,1125
2017-05-26T13:16:17.372Z,1110
2017-05-26T13:17:18.011Z,1110
2017-05-26T13:18:18.640Z,1120
2017-05-26T13:19:19.312Z,1115
2017-05-26T13:20:19.946Z,1105
2017-05-26T13:21:20.581Z,1100
2017-05-26T13:22:21.233Z,1095
2017-05-26T13:23:21.836Z,1095
2017-05-26T13:24:22.458Z,1090
2017-05-26T13:25:23.090Z,1095
2017-05-26T13:26:23.722Z,1080
2017-05-26T13:27:24.348Z,1085
2017-05-26T13:28:24.981Z,1065
2017-05-26T13:29:25.617Z,1055
2017-05-26T13:30:26.245Z,1040
2017-05-26T13:31:26.863Z,1020
2017-05-26T13:32:27.496Z,995
2017-05-26T13:33:28.116Z,970
2017-05-26T13:34:28.746Z,950
2017-05-26T13:35:29.490Z,905
2017-05-26T13:36:30.111Z,875
2017-05-26T13:37:30.740Z,835
2017-05-26T13:38:31.370Z,800
2017-05-26T13:39:31.990Z,775
2017-05-26T13:40:32.606Z,730
2017-05-26T13:41:33.236Z,695
2017-05-26T13:42:33.864Z,665
2017-05-26T13:43:34.493Z,640
2017-05-26T13:44:35.113Z,615
2017-05-26T13:45:35.739Z,590
2017-05-26T13:46:36.355Z,570
2017-05-26T13:47:36.974Z,555
2017-05-26T13:48:37.594Z,550
2017-05-26T13:49:38.226Z,555
2017-05-26T13:50:38.858Z,565
2017-05-26T13:51:39.489Z,615
2017-05-26T13:52:40.106Z,645
2017-05-26T13:53:40.724Z,680
2017-05-26T13:54:41.353Z,715
2017-05-26T13:55:41.967Z,750